Ukiah, CA (95418)

10:23 AM PDT on September 04, 2015 (GMT -0700)
Ukiah Rogina Hights | | Change Station
CLOSE
Current Station
Personal Weather Station
Location: Ukiah, CA
Elevation: 965 ft
Nearby Weather Stations

Elev 965 ft 39.15 °N, 123.17 °W | Updated 15 minutes ago

Clear
Clear
58.5 °F
Feels Like 58.5 °F
N
0.0
Wind Variable Wind from NE
Gusts 7.0 mph

Today
High -- | Low -- °F
--% Chance of Precip.
Yesterday
High -- | Low -- °F
Precip. -- in
6:44 AM 7:38 PM
Waning Gibbous, 58% visible
Pressure 29.87 in
Visibility 10.0 miles
Clouds Clear
Dew Point 38 °F
Humidity 47%
Rainfall 0.00 in
Snow Depth Not available.
UV 4 out of 12
Pollen 7.20 out of 12
Air Quality Not available.
Flu Activity Not available.
METAR KUKI 041656Z AUTO 31008KT 10SM CLR 18/05 A2989 RMK AO2 SLP115 T01830050
Pressure 29.87 in
Visibility 10.0 miles
Clouds Clear
Dew Point 38 °F
Humidity 47%
Rainfall 0.00 in
Snow Depth Not available.
UV 4 out of 12
Pollen 7.20 out of 12
Air Quality Not available.
Flu Activity Not available.
METAR KUKI 041656Z AUTO 31008KT 10SM CLR 18/05 A2989 RMK AO2 SLP115 T01830050

10-Day Weather Forecast

×

Almanac

Astronomy

Sep. 04, 2015 Rise Set
Actual Time
Civil Twilight
Nautical Twilight
Astronomical Twilight
Moon
Length of Visible Light
Length of Day
Tomorrow will be .
, % of the Moon is Illuminated

Today's Extremes

State Highs State Lows

Community

WunderPhotos

Upload Photos

1,852,237 photos uploaded!

WunderBlogs® & News

Nearby

Air Quality

  Air Quality AQ Index Pollutant
Not available.

Snow Depth

Station Depth Elevation

Earthquake Activity

City Distance Mag. Time & Date
Minimum magnitude displayed is 2.5.

Coastal Water Temperatures

Place Temperature

Stations

Nearby Weather Stations

Station Location Temp. Windchill Dew Point Humidity Wind Precip. Elev Updated Type